Weather reports worldwide

Advertisment
Polinya, Spain (8287): temperature & dewpoint: 20.09.2018 17:00:00 - 26.09.2018 17:00:00 (CEST)Polinya, Spain (8287): wind speed & gusts: 20.09.2018 17:00:00 - 26.09.2018 17:00:00 (CEST)Polinya, Spain (8287): wind direction: 20.09.2018 17:00:00 - 26.09.2018 17:00:00 (CEST)Polinya, Spain (8287): precipitation: 20.09.2018 17:00:00 - 26.09.2018 17:00:00 (CEST)
Date & Time tt [°C] td [°C] ff [km/h] ff [kn] fx [km/h] fx [kn] dd rr [mm]
26.09.2018 17:00:00 - - - - - - - -
26.09.2018 16:00:00 23,5 13,9 16 9 37 20 NE 0,0
26.09.2018 15:00:00 24,0 14,7 18 10 34 18 NE 0,0
26.09.2018 14:00:00 23,6 14,9 16 8 29 16 NE -
26.09.2018 13:00:00 21,5 18,3 4 2 25 13 N 0,3
26.09.2018 12:00:00 20,4 17,2 8 4 31 17 N 4,1
26.09.2018 11:00:00 20,9 17,5 9 5 27 14 N 1,1
26.09.2018 10:00:00 21,0 17,4 9 5 30 16 N 0,5
26.09.2018 09:00:00 20,2 17,1 0 0 17 9 NNW 0,1
26.09.2018 08:00:00 19,3 16,1 1 0 22 12 SW -
26.09.2018 07:00:00 19,1 15,8 0 0 15 8 N 7,1
26.09.2018 06:00:00 19,2 15,7 3 2 13 7 SW 0,0
26.09.2018 05:00:00 19,2 15,7 3 2 13 7 SW 0,0
26.09.2018 04:00:00 19,1 15,5 6 4 15 8 SW 0,2
26.09.2018 03:00:00 19,1 16,0 4 2 11 6 SW 0,0
26.09.2018 02:00:00 18,9 15,8 1 0 8 4 SW -
26.09.2018 01:00:00 19,1 16,1 0 0 4 2 N 0,1
26.09.2018 00:00:00 18,9 16,0 0 0 6 4 N 0,2
25.09.2018 23:00:00 18,8 15,9 0 0 10 5 NNW 0,3
25.09.2018 22:00:00 20,0 17,1 0 0 0 0 N 0,1
25.09.2018 21:00:00 19,9 16,9 0 0 14 7 N 0,5
25.09.2018 20:00:00 - - - - - - - -
25.09.2018 19:00:00 20,1 16,9 3 2 18 10 NNE 1,3
25.09.2018 18:00:00 20,5 17,3 0 0 16 9 N 1,7
25.09.2018 17:00:00 20,6 17,4 5 3 14 8 NNE 2,2
25.09.2018 16:00:00 21,4 17,8 0 0 16 9 N 0,9
25.09.2018 15:00:00 22,1 18,5 1 1 18 10 NE 1,4
25.09.2018 14:00:00 22,0 18,4 0 0 14 7 N -
25.09.2018 13:00:00 23,1 19,1 0 0 11 6 SSW 0,3
25.09.2018 12:00:00 23,9 19,8 2 1 16 9 SW 0,1
25.09.2018 11:00:00 21,3 18,1 1 1 16 9 SW 1,7
25.09.2018 10:00:00 22,4 18,5 0 0 0 0 N 0,0
25.09.2018 09:00:00 21,9 18,3 0 0 0 0 N 0,0
25.09.2018 08:00:00 21,2 17,6 0 0 0 0 N -
25.09.2018 07:00:00 20,9 17,3 0 0 5 3 N 0,0
25.09.2018 06:00:00 21,0 17,4 0 0 8 4 N 0,0
25.09.2018 05:00:00 20,6 17,1 0 0 0 0 N 0,0
25.09.2018 04:00:00 20,9 16,9 0 0 8 4 N 0,0
25.09.2018 03:00:00 22,1 18,3 2 1 8 4 SW 0,0
25.09.2018 02:00:00 21,2 17,4 0 0 5 3 N -
25.09.2018 01:00:00 20,9 16,7 0 0 0 0 N 0,0
25.09.2018 00:00:00 21,4 17,2 0 0 4 2 N 0,0
24.09.2018 23:00:00 22,0 17,1 0 0 5 3 N 0,0
24.09.2018 22:00:00 22,7 17,1 2 1 6 4 NNW 0,0
24.09.2018 21:00:00 23,6 17,4 4 2 14 8 NE 0,0
24.09.2018 20:00:00 24,6 17,3 9 5 28 15 E -
24.09.2018 19:00:00 25,8 17,5 15 8 32 18 ESE 0,0
24.09.2018 18:00:00 26,9 17,7 14 7 36 19 E 0,0
24.09.2018 17:00:00 27,6 18,3 15 8 32 18 ESE 0,0
24.09.2018 16:00:00 28,1 18,5 14 7 30 16 ESE 0,0
24.09.2018 15:00:00 29,7 15,4 13 7 22 12 ENE 0,0
24.09.2018 14:00:00 29,7 15,8 10 5 21 12 ENE -
24.09.2018 13:00:00 29,5 16,3 8 4 22 12 E 0,0
24.09.2018 12:00:00 29,1 16,0 7 4 14 8 ENE 0,0
24.09.2018 11:00:00 28,2 16,5 4 2 11 6 ENE 0,0
24.09.2018 10:00:00 25,1 16,2 2 1 7 4 SW 0,0
24.09.2018 09:00:00 23,0 15,6 1 0 10 5 SW 0,0
24.09.2018 08:00:00 23,5 14,5 7 4 14 8 SW -
24.09.2018 07:00:00 23,3 15,6 6 4 14 8 WSW 0,0
24.09.2018 06:00:00 23,4 16,0 5 3 18 10 SW 0,0
24.09.2018 05:00:00 23,5 16,3 8 4 16 9 WSW 0,0
24.09.2018 04:00:00 23,5 18,4 8 4 15 8 SW 0,0
24.09.2018 03:00:00 22,9 18,5 0 0 0 0 N 0,0
24.09.2018 02:00:00 23,0 18,5 0 0 0 0 N -
24.09.2018 01:00:00 23,2 18,5 0 0 0 0 N 0,0
24.09.2018 00:00:00 23,4 18,7 0 0 0 0 N 0,0
23.09.2018 23:00:00 24,1 19,4 0 0 5 3 N 0,0
23.09.2018 22:00:00 24,5 19,6 0 0 6 3 NNW 0,0
23.09.2018 21:00:00 25,2 19,1 0 0 9 5 NW 0,0
23.09.2018 20:00:00 26,4 17,8 3 1 21 12 NNW -
23.09.2018 19:00:00 27,6 17,8 12 6 26 14 E 0,0
23.09.2018 18:00:00 28,3 18,1 14 8 29 15 E 0,0
23.09.2018 17:00:00 28,9 18,7 14 8 29 16 E 0,0
23.09.2018 16:00:00 29,5 17,7 13 7 23 12 E 0,0
23.09.2018 15:00:00 31,1 17,1 6 4 15 8 E 0,0
23.09.2018 14:00:00 31,1 17,1 3 2 14 7 E -
23.09.2018 13:00:00 30,7 16,6 2 1 10 5 N 0,0
23.09.2018 12:00:00 29,4 16,6 1 1 10 6 NNW 0,0
23.09.2018 11:00:00 27,1 16,7 4 2 16 9 SW 0,0
23.09.2018 10:00:00 24,6 16,8 4 2 14 8 WSW 0,0
23.09.2018 09:00:00 22,5 17,4 6 3 14 8 SW 0,0
23.09.2018 08:00:00 21,4 16,4 0 0 11 6 SW -
23.09.2018 07:00:00 22,6 17,1 5 3 12 6 WSW 0,0
23.09.2018 06:00:00 23,2 17,5 7 4 14 7 WSW 0,0
23.09.2018 05:00:00 23,1 17,5 5 3 13 7 SW 0,0
23.09.2018 04:00:00 23,1 18,0 8 4 14 8 SW 0,0
23.09.2018 03:00:00 23,1 18,0 8 4 11 6 SW 0,0
23.09.2018 02:00:00 23,2 18,3 7 4 11 6 SW -
23.09.2018 01:00:00 23,9 18,1 7 4 10 6 SW 0,0
23.09.2018 00:00:00 23,9 19,2 5 3 8 5 SW 0,0
22.09.2018 23:00:00 24,0 19,7 0 0 0 0 N 0,0
22.09.2018 22:00:00 24,3 19,8 0 0 8 5 N 0,0
22.09.2018 21:00:00 24,8 20,1 4 2 12 6 N 0,0
22.09.2018 20:00:00 26,0 19,8 6 4 14 7 NNE -
22.09.2018 19:00:00 27,3 18,8 8 4 20 11 E 0,0
22.09.2018 18:00:00 28,0 18,4 11 6 22 12 E 0,0
22.09.2018 17:00:00 28,6 19,0 12 7 24 13 E 0,0
22.09.2018 16:00:00 29,2 18,0 11 6 23 12 E 0,0
22.09.2018 15:00:00 30,1 17,9 8 4 18 10 E 0,0
22.09.2018 14:00:00 29,3 16,5 5 3 13 7 NNE -
22.09.2018 13:00:00 28,9 16,8 1 1 9 5 WNW 0,0
22.09.2018 12:00:00 27,7 18,4 1 1 10 5 N 0,0
22.09.2018 11:00:00 25,9 17,0 1 1 13 7 WSW 0,0
22.09.2018 10:00:00 23,9 16,1 8 4 14 8 SW 0,0
22.09.2018 09:00:00 22,2 15,5 6 3 13 7 SW 0,0
22.09.2018 08:00:00 20,8 15,2 4 2 12 6 WSW -
22.09.2018 07:00:00 20,9 15,9 6 3 13 7 SW 0,0
22.09.2018 06:00:00 20,1 16,1 2 1 9 5 SW 0,0
22.09.2018 05:00:00 20,7 15,4 0 0 13 7 N 0,0
22.09.2018 04:00:00 21,9 16,6 3 2 12 6 SW 0,0
22.09.2018 03:00:00 22,2 17,5 6 3 11 6 SW 0,0
22.09.2018 02:00:00 22,1 17,5 8 4 13 7 SW -
22.09.2018 01:00:00 23,0 17,7 4 2 10 5 SW 0,0
22.09.2018 00:00:00 24,1 17,4 6 3 10 5 SW 0,0
21.09.2018 23:00:00 23,5 18,2 0 0 5 3 N 0,0
21.09.2018 22:00:00 24,1 19,2 1 1 10 5 SW 0,0
21.09.2018 21:00:00 24,9 19,7 5 3 14 7 N 0,0
21.09.2018 20:00:00 26,8 18,1 7 4 15 8 NE -
21.09.2018 19:00:00 28,7 14,1 10 5 20 11 E 0,0
21.09.2018 18:00:00 29,6 13,8 11 6 23 12 E 0,0
21.09.2018 17:00:00 30,2 15,5 11 6 25 13 E 0,0
21.09.2018 16:00:00 30,1 16,1 11 6 22 12 E 0,0
21.09.2018 15:00:00 30,1 16,5 11 6 19 11 E 0,0
21.09.2018 14:00:00 31,2 16,4 6 3 18 10 E -
21.09.2018 13:00:00 30,7 16,0 1 1 9 5 ENE 0,0
21.09.2018 12:00:00 28,8 15,7 2 1 12 7 SSW 0,0
21.09.2018 11:00:00 26,6 16,2 2 1 17 9 WSW 0,0
21.09.2018 10:00:00 24,8 16,5 4 2 17 9 SW 0,0
21.09.2018 09:00:00 22,6 15,7 10 5 19 10 SW 0,0
21.09.2018 08:00:00 21,1 15,2 6 3 14 8 WSW -
21.09.2018 07:00:00 20,7 15,7 4 2 13 7 SW 0,0
21.09.2018 06:00:00 20,9 16,3 6 3 14 8 SW 0,0
21.09.2018 05:00:00 21,1 16,5 5 3 12 6 WSW 0,0
21.09.2018 04:00:00 21,2 16,6 8 4 13 7 SW 0,0
21.09.2018 03:00:00 21,1 17,1 0 0 0 0 N 0,0
21.09.2018 02:00:00 21,7 17,5 0 0 0 0 N -
21.09.2018 01:00:00 21,4 17,2 0 0 0 0 N 0,0
21.09.2018 00:00:00 21,9 17,7 0 0 10 5 N 0,0
20.09.2018 23:00:00 21,9 17,7 3 2 6 4 SW 0,0
20.09.2018 22:00:00 22,4 17,9 0 0 6 3 N 0,0
20.09.2018 21:00:00 23,2 18,1 2 1 13 7 NW 0,0
20.09.2018 20:00:00 24,7 18,4 9 5 23 12 E -
20.09.2018 19:00:00 26,2 17,5 13 7 25 14 ESE 0,0
20.09.2018 18:00:00 27,0 16,9 14 7 28 15 E 0,0
20.09.2018 17:00:00 27,7 16,6 14 8 28 15 E 0,0

tt = temperature
td = dewpoint
ff = wind speed
fx = gusts
dd = wind direction
rr = precipitation

Next stations